createdAt,value
2023-01-01T00:03:04.565Z,9.19
2023-01-01T00:06:13.057Z,9.33
2023-01-01T00:09:36.867Z,9.31
2023-01-01T00:12:42.255Z,9.36
2023-01-01T00:15:47.939Z,9.36
2023-01-01T00:18:53.589Z,9.29
2023-01-01T00:22:02.119Z,9.33
2023-01-01T00:25:16.259Z,9.39
2023-01-01T00:28:21.820Z,9.44
2023-01-01T00:31:27.488Z,9.48
2023-01-01T00:34:33.078Z,9.45
2023-01-01T00:37:43.313Z,9.44
2023-01-01T00:40:51.951Z,9.45
2023-01-01T00:43:57.219Z,9.34
2023-01-01T00:47:02.498Z,9.31
2023-01-01T00:50:08.239Z,9.18
2023-01-01T00:53:14.105Z,9.37
2023-01-01T00:56:19.634Z,9.39
2023-01-01T00:59:28.948Z,9.39
2023-01-01T01:02:34.779Z,9.35
2023-01-01T01:05:40.490Z,9.29
2023-01-01T01:08:46.997Z,9.37
2023-01-01T01:12:18.453Z,9.38
2023-01-01T01:15:19.273Z,9.35
2023-01-01T01:18:25.246Z,9.40
2023-01-01T01:21:34.579Z,9.40
2023-01-01T01:24:40.272Z,9.41
2023-01-01T01:27:45.972Z,9.29
2023-01-01T01:30:51.166Z,9.27
2023-01-01T01:33:57.898Z,9.27
2023-01-01T01:37:03.383Z,9.26
2023-01-01T01:40:09.573Z,9.33
2023-01-01T01:43:45.736Z,9.34
2023-01-01T01:46:51.786Z,9.28
2023-01-01T01:50:29.757Z,9.19
2023-01-01T01:53:41.953Z,9.29
2023-01-01T01:56:47.485Z,9.32
2023-01-01T01:59:57.052Z,9.27
2023-01-01T02:03:11.646Z,9.31
2023-01-01T02:06:19.510Z,9.29
2023-01-01T02:09:25.380Z,9.28
2023-01-01T02:12:30.642Z,9.21
2023-01-01T02:15:42.444Z,9.19
2023-01-01T02:19:21.394Z,9.24
2023-01-01T02:23:04.719Z,9.28
2023-01-01T02:26:39.181Z,9.28
2023-01-01T02:30:00.477Z,9.26
2023-01-01T02:33:12.699Z,9.27
2023-01-01T02:36:20.222Z,9.21
2023-01-01T02:39:32.787Z,9.25
2023-01-01T02:42:38.404Z,9.16
2023-01-01T02:45:43.985Z,9.20
2023-01-01T02:48:53.652Z,9.26
2023-01-01T02:52:09.187Z,9.23
2023-01-01T02:55:48.090Z,9.25
2023-01-01T02:59:42.409Z,9.24
2023-01-01T03:03:06.769Z,9.22
2023-01-01T03:06:25.479Z,9.21
2023-01-01T03:09:59.693Z,9.26
2023-01-01T03:13:30.186Z,9.22
2023-01-01T03:16:44.146Z,9.17
2023-01-01T03:19:52.748Z,9.20
2023-01-01T03:23:02.649Z,9.20
2023-01-01T03:26:13.006Z,9.25
2023-01-01T03:29:19.093Z,9.15
2023-01-01T03:33:00.971Z,9.11
2023-01-01T03:36:07.710Z,9.15
2023-01-01T03:39:16.984Z,9.16
2023-01-01T03:42:36.724Z,9.17
2023-01-01T03:45:48.681Z,9.10
2023-01-01T03:49:03.284Z,9.16
2023-01-01T03:52:33.830Z,9.14
2023-01-01T03:55:47.473Z,9.06
2023-01-01T03:59:28.328Z,9.05
2023-01-01T04:02:55.758Z,9.02
2023-01-01T04:06:03.455Z,9.10
2023-01-01T04:09:18.070Z,9.16
2023-01-01T04:12:23.792Z,9.16
2023-01-01T04:15:28.979Z,9.12
2023-01-01T04:18:34.248Z,9.15
2023-01-01T04:21:39.509Z,9.05
2023-01-01T04:24:44.757Z,9.08
2023-01-01T04:27:49.794Z,9.12
2023-01-01T04:33:59.500Z,9.14
2023-01-01T04:37:09.730Z,9.15
2023-01-01T04:40:18.645Z,9.20
2023-01-01T04:43:24.023Z,9.10
2023-01-01T04:46:29.589Z,9.13
2023-01-01T04:49:35.178Z,9.19
2023-01-01T04:52:40.948Z,9.10
2023-01-01T04:55:46.465Z,8.95
2023-01-01T04:58:51.967Z,9.04
2023-01-01T05:01:58.026Z,9.08
2023-01-01T05:05:03.507Z,9.08
2023-01-01T05:08:09.276Z,9.04
2023-01-01T05:11:17.678Z,9.08
2023-01-01T05:14:23.528Z,9.11
2023-01-01T05:17:29.055Z,9.04
2023-01-01T05:20:35.363Z,8.95
2023-01-01T05:23:40.955Z,9.04
2023-01-01T05:26:46.747Z,8.96
2023-01-01T05:29:52.050Z,8.91
2023-01-01T05:32:57.656Z,9.02
2023-01-01T05:36:05.699Z,9.01
2023-01-01T05:39:13.277Z,9.02
2023-01-01T05:42:19.199Z,9.01
2023-01-01T05:45:24.987Z,8.96
2023-01-01T05:48:30.910Z,8.98
2023-01-01T05:54:41.579Z,9.01
2023-01-01T05:57:47.137Z,9.05
2023-01-01T06:00:53.294Z,9.04
2023-01-01T06:04:00.250Z,9.09
2023-01-01T06:07:05.431Z,9.00
2023-01-01T06:10:10.962Z,9.04
2023-01-01T06:13:16.599Z,9.13
2023-01-01T06:16:21.987Z,9.12
2023-01-01T06:19:27.535Z,8.99
2023-01-01T06:22:32.952Z,9.01
2023-01-01T06:25:38.289Z,8.90
2023-01-01T06:28:45.343Z,9.01
2023-01-01T06:31:50.554Z,9.03
2023-01-01T06:34:56.241Z,9.08
2023-01-01T06:38:01.775Z,8.98
2023-01-01T06:41:11.048Z,9.06
2023-01-01T06:44:16.829Z,9.01
2023-01-01T06:47:22.458Z,9.00
2023-01-01T06:50:28.140Z,9.01
2023-01-01T06:53:34.333Z,8.92
2023-01-01T06:56:40.084Z,8.98
2023-01-01T06:59:45.297Z,9.02
2023-01-01T07:02:51.179Z,8.95
2023-01-01T07:05:56.574Z,8.92
2023-01-01T07:09:02.487Z,8.93
2023-01-01T07:12:08.420Z,8.97
2023-01-01T07:15:14.023Z,9.00
2023-01-01T07:18:21.380Z,9.13
2023-01-01T07:21:33.366Z,9.17
2023-01-01T07:24:40.078Z,9.12
2023-01-01T07:27:45.566Z,9.18
2023-01-01T07:30:53.975Z,9.24
2023-01-01T07:33:59.361Z,9.16
2023-01-01T07:37:04.693Z,9.13
2023-01-01T07:40:10.584Z,9.19
2023-01-01T07:43:16.351Z,9.25
2023-01-01T07:46:22.264Z,9.24
2023-01-01T07:49:27.602Z,9.35
2023-01-01T07:52:33.354Z,9.43
2023-01-01T07:55:39.138Z,9.38
2023-01-01T07:58:44.550Z,9.41
2023-01-01T08:01:51.472Z,9.36
2023-01-01T08:04:57.042Z,9.42
2023-01-01T08:08:02.451Z,9.35
2023-01-01T08:11:07.881Z,9.33
2023-01-01T08:14:14.277Z,9.30
2023-01-01T08:17:19.412Z,9.37
2023-01-01T08:20:25.059Z,9.41
2023-01-01T08:23:31.185Z,9.40
2023-01-01T08:26:37.464Z,9.33
2023-01-01T08:29:43.891Z,9.47
2023-01-01T08:32:49.667Z,9.45
2023-01-01T08:35:55.344Z,9.53
2023-01-01T08:39:00.516Z,9.52
2023-01-01T08:42:11.840Z,9.49
2023-01-01T08:45:17.401Z,9.39
2023-01-01T08:48:28.865Z,9.42
2023-01-01T08:51:36.479Z,9.54
2023-01-01T08:54:42.068Z,9.62
2023-01-01T08:57:47.653Z,9.57
2023-01-01T09:00:54.490Z,9.66
2023-01-01T09:04:00.176Z,9.56
2023-01-01T09:07:05.678Z,9.54
2023-01-01T09:10:10.839Z,9.52
2023-01-01T09:13:19.392Z,9.60
2023-01-01T09:16:25.025Z,9.62
2023-01-01T09:19:30.374Z,9.61
2023-01-01T09:22:36.148Z,9.72
2023-01-01T09:25:41.572Z,9.69
2023-01-01T09:28:46.884Z,9.66
2023-01-01T09:31:52.552Z,9.73
2023-01-01T09:34:58.171Z,9.66
2023-01-01T09:38:03.621Z,9.58
2023-01-01T09:41:23.841Z,9.72
2023-01-01T09:44:56.628Z,9.78
2023-01-01T09:48:11.912Z,9.72
2023-01-01T09:51:20.197Z,9.86
2023-01-01T09:54:38.451Z,9.91
2023-01-01T09:57:43.640Z,9.94
2023-01-01T10:00:56.691Z,9.91
2023-01-01T10:04:26.515Z,9.90
2023-01-01T10:08:04.144Z,9.92
2023-01-01T10:11:17.258Z,9.80
2023-01-01T10:15:04.988Z,9.87
2023-01-01T10:18:20.561Z,9.86
2023-01-01T10:21:34.128Z,9.89
2023-01-01T10:24:50.421Z,10.02
2023-01-01T10:28:28.764Z,9.92
2023-01-01T10:31:42.745Z,10.02
2023-01-01T10:34:50.741Z,10.06
2023-01-01T10:37:59.859Z,10.00
2023-01-01T10:41:17.119Z,10.06
2023-01-01T10:44:31.844Z,9.96
2023-01-01T10:47:37.357Z,9.96
2023-01-01T10:50:52.559Z,10.06
2023-01-01T10:53:58.437Z,10.03
2023-01-01T10:57:17.306Z,9.93
2023-01-01T11:00:27.299Z,10.10
2023-01-01T11:03:33.679Z,10.15
2023-01-01T11:06:42.728Z,10.10
2023-01-01T11:10:02.557Z,10.10
2023-01-01T11:13:21.081Z,10.15
2023-01-01T11:16:29.250Z,10.20
2023-01-01T11:19:45.685Z,10.29
2023-01-01T11:22:56.592Z,10.14
2023-01-01T11:26:13.992Z,10.11
2023-01-01T11:29:27.226Z,10.14
2023-01-01T11:32:36.015Z,10.16
2023-01-01T11:35:53.052Z,10.17
2023-01-01T11:39:18.791Z,10.15
2023-01-01T11:42:27.916Z,10.23
2023-01-01T11:45:42.788Z,10.32
2023-01-01T11:48:48.496Z,10.05
2023-01-01T11:51:54.069Z,10.09
2023-01-01T11:55:21.485Z,10.05
2023-01-01T11:58:45.386Z,9.99
2023-01-01T12:01:55.263Z,10.25
2023-01-01T12:05:26.175Z,10.21
2023-01-01T12:08:40.127Z,10.35
2023-01-01T12:11:53.081Z,10.32
2023-01-01T12:15:16.041Z,10.32
2023-01-01T12:18:29.316Z,10.17
2023-01-01T12:21:36.779Z,10.07
2023-01-01T12:24:42.850Z,10.22
2023-01-01T12:28:04.012Z,10.16
2023-01-01T12:31:29.001Z,10.10
2023-01-01T12:35:00.110Z,10.04
2023-01-01T12:38:14.537Z,10.20
2023-01-01T12:42:02.433Z,10.26
2023-01-01T12:45:30.510Z,10.30
2023-01-01T12:48:48.192Z,10.26
2023-01-01T12:52:13.810Z,10.29
2023-01-01T12:55:47.591Z,10.16
2023-01-01T12:58:59.228Z,10.22
2023-01-01T13:02:14.752Z,10.24
2023-01-01T13:05:29.328Z,10.24
2023-01-01T13:08:37.171Z,10.19
2023-01-01T13:11:45.668Z,10.08
2023-01-01T13:14:51.554Z,10.23
2023-01-01T13:17:56.752Z,10.34
2023-01-01T13:21:17.069Z,10.30
2023-01-01T13:24:25.568Z,10.33
2023-01-01T13:27:58.466Z,10.28
2023-01-01T13:31:04.246Z,10.37
2023-01-01T13:34:31.008Z,10.32
2023-01-01T13:37:44.321Z,10.23
2023-01-01T13:40:51.468Z,10.37
2023-01-01T13:43:59.577Z,10.33
2023-01-01T13:47:27.809Z,10.34
2023-01-01T13:51:39.957Z,10.34
2023-01-01T13:55:14.657Z,10.34
2023-01-01T13:58:43.588Z,10.36
2023-01-01T14:01:55.261Z,10.41
2023-01-01T14:05:18.835Z,10.36
2023-01-01T14:08:36.355Z,10.36
2023-01-01T14:12:08.375Z,10.30
2023-01-01T14:15:27.797Z,10.29
2023-01-01T14:18:57.100Z,10.37
2023-01-01T14:22:25.682Z,10.32
2023-01-01T14:25:30.975Z,10.29
2023-01-01T14:28:55.600Z,10.33
2023-01-01T14:32:12.723Z,10.34
2023-01-01T14:35:36.657Z,10.37
2023-01-01T14:38:49.835Z,10.33
2023-01-01T14:42:16.743Z,10.20
2023-01-01T14:45:24.675Z,10.23
2023-01-01T14:48:48.709Z,10.33
2023-01-01T14:52:01.051Z,10.27
2023-01-01T14:55:26.511Z,10.28
2023-01-01T14:58:31.701Z,10.30
2023-01-01T15:01:55.844Z,10.27
2023-01-01T15:05:35.695Z,10.25
2023-01-01T15:09:00.339Z,10.25
2023-01-01T15:12:05.708Z,10.21
2023-01-01T15:15:37.898Z,10.30
2023-01-01T15:18:50.800Z,10.33
2023-01-01T15:21:56.851Z,10.30
2023-01-01T15:25:03.456Z,10.18
2023-01-01T15:28:20.904Z,10.17
2023-01-01T15:31:42.547Z,10.21
2023-01-01T15:34:47.856Z,10.11
2023-01-01T15:37:59.386Z,10.14
2023-01-01T15:41:23.767Z,10.05
2023-01-01T15:44:36.767Z,10.10
2023-01-01T15:47:42.156Z,10.14
2023-01-01T15:50:50.512Z,10.23
2023-01-01T15:54:05.161Z,10.21
2023-01-01T15:57:20.662Z,10.24
2023-01-01T16:00:29.704Z,10.21
2023-01-01T16:03:37.204Z,10.14
2023-01-01T16:06:47.547Z,10.15
2023-01-01T16:09:57.724Z,10.18
2023-01-01T16:13:04.055Z,10.19
2023-01-01T16:16:30.309Z,10.20
2023-01-01T16:19:35.633Z,10.16
2023-01-01T16:22:40.953Z,10.22
2023-01-01T16:25:46.709Z,10.13
2023-01-01T16:28:52.206Z,10.18
2023-01-01T16:31:57.825Z,10.13
2023-01-01T16:35:11.534Z,10.12
2023-01-01T16:38:17.468Z,10.15
2023-01-01T16:41:22.602Z,10.15
2023-01-01T16:44:27.800Z,10.11
2023-01-01T16:47:33.217Z,10.08
2023-01-01T16:50:38.689Z,10.02
2023-01-01T16:53:44.432Z,10.03
2023-01-01T16:56:50.183Z,10.11
2023-01-01T16:59:56.390Z,10.13
2023-01-01T17:03:01.802Z,9.96
2023-01-01T17:06:09.983Z,9.96
2023-01-01T17:09:16.157Z,10.00
2023-01-01T17:12:21.448Z,9.97
2023-01-01T17:15:26.947Z,10.02
2023-01-01T17:19:04.278Z,9.99
2023-01-01T17:21:58.558Z,9.94
2023-01-01T17:25:04.608Z,10.05
2023-01-01T17:28:10.116Z,10.07
2023-01-01T17:31:20.238Z,10.08
2023-01-01T17:34:25.910Z,10.02
2023-01-01T17:37:33.278Z,10.06
2023-01-01T17:40:38.541Z,10.03
2023-01-01T17:43:47.877Z,9.96
2023-01-01T17:46:55.285Z,9.98
2023-01-01T17:50:01.293Z,9.98
2023-01-01T17:53:12.090Z,10.01
2023-01-01T17:56:20.736Z,9.96
2023-01-01T17:59:26.077Z,9.97
2023-01-01T18:02:33.830Z,9.93
2023-01-01T18:05:39.189Z,9.92
2023-01-01T18:08:44.504Z,9.95
2023-01-01T18:11:50.194Z,9.96
2023-01-01T18:14:55.595Z,10.01
2023-01-01T18:18:01.105Z,10.02
2023-01-01T18:21:19.475Z,10.01
2023-01-01T18:24:24.725Z,9.98
2023-01-01T18:27:30.333Z,10.02
2023-01-01T18:30:37.027Z,9.96
2023-01-01T18:33:43.907Z,9.98
2023-01-01T18:36:49.256Z,9.90
2023-01-01T18:39:59.321Z,9.92
2023-01-01T18:43:19.733Z,9.92
2023-01-01T18:46:25.406Z,9.91
2023-01-01T18:49:31.524Z,9.96
2023-01-01T18:52:36.656Z,9.86
2023-01-01T18:55:41.823Z,9.90
2023-01-01T18:58:49.589Z,9.91
2023-01-01T19:01:55.214Z,9.88
2023-01-01T19:05:17.158Z,9.91
2023-01-01T19:08:23.540Z,9.93
2023-01-01T19:11:30.498Z,9.92
2023-01-01T19:14:35.919Z,9.94
2023-01-01T19:17:41.153Z,9.91
2023-01-01T19:20:47.086Z,9.93
2023-01-01T19:23:53.608Z,9.89
2023-01-01T19:27:10.656Z,9.94
2023-01-01T19:30:25.515Z,9.97
2023-01-01T19:33:31.732Z,9.83
2023-01-01T19:36:37.698Z,9.95
2023-01-01T19:39:44.174Z,9.89
2023-01-01T19:42:50.827Z,9.93
2023-01-01T19:45:56.168Z,9.93
2023-01-01T19:49:01.835Z,9.94
2023-01-01T19:52:07.708Z,9.89
2023-01-01T19:55:13.178Z,9.88
2023-01-01T19:58:20.167Z,9.90
2023-01-01T20:01:25.773Z,9.87
2023-01-01T20:04:31.193Z,9.85
2023-01-01T20:07:36.659Z,9.85
2023-01-01T20:10:42.127Z,9.87
2023-01-01T20:13:47.930Z,9.78
2023-01-01T20:16:53.851Z,9.85
2023-01-01T20:19:59.343Z,9.82
2023-01-01T20:23:04.628Z,9.83
2023-01-01T20:26:09.927Z,9.89
2023-01-01T20:29:21.509Z,9.83
2023-01-01T20:32:28.339Z,9.87
2023-01-01T20:35:51.790Z,9.88
2023-01-01T20:38:57.112Z,9.87
2023-01-01T20:42:03.036Z,9.80
2023-01-01T20:45:09.132Z,9.79
2023-01-01T20:48:19.586Z,9.75
2023-01-01T20:51:25.656Z,9.76
2023-01-01T20:54:31.013Z,9.76
2023-01-01T20:57:36.406Z,9.79
2023-01-01T21:00:41.940Z,9.74
2023-01-01T21:03:47.502Z,9.74
2023-01-01T21:06:53.341Z,9.74
2023-01-01T21:09:58.936Z,9.68
2023-01-01T21:13:04.563Z,9.75
2023-01-01T21:16:34.948Z,9.75
2023-01-01T21:19:40.990Z,9.77
2023-01-01T21:22:48.039Z,9.79
2023-01-01T21:25:53.833Z,9.74
2023-01-01T21:29:00.331Z,9.66
2023-01-01T21:32:34.204Z,9.65
2023-01-01T21:35:39.460Z,9.74
2023-01-01T21:38:46.287Z,9.73
2023-01-01T21:41:51.927Z,9.73
2023-01-01T21:44:58.233Z,9.72
2023-01-01T21:48:17.297Z,9.74
2023-01-01T21:51:31.905Z,9.62
2023-01-01T21:54:38.715Z,9.66
2023-01-01T21:57:45.581Z,9.68
2023-01-01T22:00:51.254Z,9.72
2023-01-01T22:04:24.848Z,9.70
2023-01-01T22:11:13.526Z,9.75
2023-01-01T22:14:23.191Z,9.78
2023-01-01T22:17:36.923Z,9.71
2023-01-01T22:20:45.587Z,9.74
2023-01-01T22:23:56.830Z,9.72
2023-01-01T22:27:28.410Z,9.72
2023-01-01T22:30:34.084Z,9.71
2023-01-01T22:33:44.496Z,9.69
2023-01-01T22:36:50.295Z,9.74
2023-01-01T22:39:55.599Z,9.74
2023-01-01T22:43:05.669Z,9.72
2023-01-01T22:46:39.600Z,9.61
2023-01-01T22:49:51.929Z,9.72
2023-01-01T22:52:57.821Z,9.71
2023-01-01T22:56:03.681Z,9.68
2023-01-01T22:59:09.471Z,9.75
2023-01-01T23:02:15.318Z,9.75
2023-01-01T23:05:20.907Z,9.77
2023-01-01T23:08:26.735Z,9.80
2023-01-01T23:11:32.423Z,9.85
2023-01-01T23:14:56.404Z,9.75
2023-01-01T23:18:01.575Z,9.76
2023-01-01T23:21:15.387Z,9.71
2023-01-01T23:24:24.408Z,9.60
2023-01-01T23:27:29.890Z,9.71
2023-01-01T23:30:35.389Z,9.70
2023-01-01T23:33:41.536Z,9.66
2023-01-01T23:36:46.834Z,9.67
2023-01-01T23:39:52.297Z,9.69
2023-01-01T23:42:58.933Z,9.71
2023-01-01T23:46:04.575Z,9.69
2023-01-01T23:49:10.311Z,9.66
2023-01-01T23:52:15.921Z,9.65
2023-01-01T23:55:21.808Z,9.72
2023-01-01T23:58:27.394Z,9.74
